createdAt,value
2022-10-23T00:01:32.714Z,72.50
2022-10-23T00:04:06.161Z,73.10
2022-10-23T00:06:34.260Z,73.80
2022-10-23T00:09:01.145Z,72.80
2022-10-23T00:11:30.042Z,72.20
2022-10-23T00:13:59.566Z,73.20
2022-10-23T00:16:27.628Z,73.80
2022-10-23T00:18:54.382Z,73.90
2022-10-23T00:21:21.753Z,72.20
2022-10-23T00:23:48.633Z,72.60
2022-10-23T00:26:16.011Z,72.60
2022-10-23T00:28:48.785Z,72.70
2022-10-23T00:31:16.085Z,74.00
2022-10-23T00:33:43.934Z,73.00
2022-10-23T00:36:13.044Z,72.60
2022-10-23T00:38:40.382Z,73.30
2022-10-23T00:41:09.301Z,72.90
2022-10-23T00:44:07.943Z,73.40
2022-10-23T00:46:36.287Z,74.00
2022-10-23T00:49:05.168Z,73.10
2022-10-23T00:51:37.892Z,73.10
2022-10-23T00:54:23.878Z,73.90
2022-10-23T00:56:54.449Z,73.00
2022-10-23T00:59:21.149Z,73.60
2022-10-23T01:01:48.469Z,72.70
2022-10-23T01:04:15.638Z,72.70
2022-10-23T01:07:08.243Z,73.00
2022-10-23T01:09:40.357Z,74.40
2022-10-23T01:12:13.158Z,74.30
2022-10-23T01:14:54.846Z,74.50
2022-10-23T01:17:42.420Z,73.70
2022-10-23T01:20:33.873Z,74.00
2022-10-23T01:23:26.382Z,74.80
2022-10-23T01:26:19.497Z,74.20
2022-10-23T01:28:52.349Z,74.80
2022-10-23T01:31:28.402Z,72.20
2022-10-23T01:34:00.849Z,74.70
2022-10-23T01:36:29.952Z,74.10
2022-10-23T01:39:04.950Z,73.70
2022-10-23T01:41:44.372Z,73.80
2022-10-23T01:44:29.340Z,74.80
2022-10-23T01:46:58.050Z,74.20
2022-10-23T01:49:29.430Z,74.30
2022-10-23T01:52:01.998Z,73.40
2022-10-23T01:54:34.426Z,74.00
2022-10-23T01:57:02.984Z,74.10
2022-10-23T01:59:37.333Z,73.70
2022-10-23T02:02:07.620Z,74.10
2022-10-23T02:04:38.701Z,73.40
2022-10-23T02:07:05.754Z,73.80
2022-10-23T02:09:32.966Z,72.70
2022-10-23T02:12:02.712Z,72.90
2022-10-23T02:14:47.208Z,74.30
2022-10-23T02:17:30.358Z,74.70
2022-10-23T02:20:27.689Z,73.70
2022-10-23T02:23:09.914Z,74.00
2022-10-23T02:25:46.125Z,74.40
2022-10-23T02:28:17.884Z,74.00
2022-10-23T02:30:49.086Z,73.90
2022-10-23T02:33:16.636Z,73.50
2022-10-23T02:35:43.678Z,73.50
2022-10-23T02:38:34.010Z,72.90
2022-10-23T02:41:19.799Z,73.90
2022-10-23T02:44:10.578Z,74.10
2022-10-23T02:46:51.116Z,75.00
2022-10-23T02:49:45.560Z,74.70
2022-10-23T02:52:30.745Z,74.50
2022-10-23T02:55:32.725Z,74.70
2022-10-23T02:58:19.347Z,74.30
2022-10-23T03:00:55.816Z,74.70
2022-10-23T03:03:28.258Z,74.30
2022-10-23T03:05:55.078Z,74.50
2022-10-23T03:08:22.361Z,73.00
2022-10-23T03:13:23.281Z,72.90
2022-10-23T03:15:49.964Z,73.10
2022-10-23T03:18:16.835Z,72.90
2022-10-23T03:20:49.912Z,72.90
2022-10-23T03:23:16.953Z,72.90
2022-10-23T03:25:43.638Z,72.70
2022-10-23T03:28:22.302Z,73.00
2022-10-23T03:30:49.155Z,73.30
2022-10-23T03:33:15.965Z,73.30
2022-10-23T03:35:42.659Z,73.20
2022-10-23T03:38:09.508Z,73.20
2022-10-23T03:40:36.205Z,73.30
2022-10-23T03:43:03.189Z,73.10
2022-10-23T03:45:30.853Z,73.20
2022-10-23T03:47:57.533Z,73.00
2022-10-23T03:50:24.496Z,73.00
2022-10-23T03:52:51.478Z,73.00
2022-10-23T03:55:18.357Z,73.20
2022-10-23T03:57:45.058Z,72.90
2022-10-23T04:00:12.746Z,72.90
2022-10-23T04:02:47.484Z,73.30
2022-10-23T04:05:14.593Z,73.10
2022-10-23T04:07:50.390Z,73.20
2022-10-23T04:10:17.138Z,73.10
2022-10-23T04:12:44.413Z,73.10
2022-10-23T04:15:12.173Z,73.50
2022-10-23T04:17:41.187Z,73.00
2022-10-23T04:20:08.165Z,73.10
2022-10-23T04:22:34.821Z,73.30
2022-10-23T04:25:01.535Z,73.00
2022-10-23T04:27:29.925Z,73.00
2022-10-23T04:29:58.985Z,73.10
2022-10-23T04:32:26.722Z,73.00
2022-10-23T04:34:53.432Z,73.30
2022-10-23T04:37:20.122Z,73.30
2022-10-23T04:39:46.838Z,72.90
2022-10-23T04:42:14.285Z,73.00
2022-10-23T04:44:41.027Z,73.00
2022-10-23T04:47:07.996Z,73.00
2022-10-23T04:49:42.244Z,73.10
2022-10-23T04:52:20.554Z,73.10
2022-10-23T04:55:26.224Z,73.10
2022-10-23T04:58:08.593Z,73.20
2022-10-23T05:00:35.361Z,73.10
2022-10-23T05:03:02.106Z,73.00
2022-10-23T05:05:35.939Z,73.00
2022-10-23T05:08:07.930Z,73.10
2022-10-23T05:10:42.226Z,73.10
2022-10-23T05:13:11.810Z,73.20
2022-10-23T05:15:39.941Z,73.10
2022-10-23T05:18:14.296Z,73.10
2022-10-23T05:20:42.159Z,75.80
2022-10-23T05:23:13.481Z,73.50
2022-10-23T05:25:42.833Z,74.00
2022-10-23T05:28:17.882Z,73.50
2022-10-23T05:30:45.346Z,73.40
2022-10-23T05:33:12.280Z,74.00
2022-10-23T05:35:44.117Z,73.60
2022-10-23T05:38:13.026Z,74.30
2022-10-23T05:43:17.193Z,73.50
2022-10-23T05:45:49.868Z,73.30
2022-10-23T05:48:34.846Z,73.30
2022-10-23T05:51:22.929Z,73.30
2022-10-23T05:54:08.873Z,74.50
2022-10-23T05:56:43.434Z,73.60
2022-10-23T05:59:23.071Z,73.40
2022-10-23T06:02:00.072Z,73.50
2022-10-23T06:04:44.950Z,73.80
2022-10-23T06:07:35.013Z,73.30
2022-10-23T06:10:05.799Z,73.30
2022-10-23T06:12:35.167Z,73.80
2022-10-23T06:15:02.541Z,73.20
2022-10-23T06:17:49.199Z,73.60
2022-10-23T06:20:15.915Z,73.40
2022-10-23T06:22:44.607Z,73.30
2022-10-23T06:25:25.417Z,73.30
2022-10-23T06:27:53.849Z,73.30
2022-10-23T06:30:20.643Z,73.40
2022-10-23T06:32:49.179Z,73.40
2022-10-23T06:35:16.198Z,73.60
2022-10-23T06:37:43.806Z,73.60
2022-10-23T06:40:22.333Z,73.50
2022-10-23T06:42:59.229Z,73.60
2022-10-23T06:45:30.020Z,73.50
2022-10-23T06:48:16.977Z,73.60
2022-10-23T06:50:55.770Z,73.50
2022-10-23T06:53:33.492Z,73.60
2022-10-23T06:56:08.864Z,73.80
2022-10-23T06:58:38.678Z,74.40
2022-10-23T07:01:16.481Z,74.60
2022-10-23T07:03:44.901Z,74.10
2022-10-23T07:06:12.124Z,73.50
2022-10-23T07:08:38.982Z,73.30
2022-10-23T07:11:21.357Z,73.50
2022-10-23T07:13:49.192Z,73.30
2022-10-23T07:16:20.042Z,73.30
2022-10-23T07:18:48.570Z,74.20
2022-10-23T07:21:32.041Z,73.80
2022-10-23T07:24:17.495Z,73.40
2022-10-23T07:26:44.810Z,73.30
2022-10-23T07:29:12.729Z,73.40
2022-10-23T07:31:39.790Z,73.60
2022-10-23T07:34:25.024Z,73.20
2022-10-23T07:37:09.643Z,73.70
2022-10-23T07:39:36.908Z,72.80
2022-10-23T07:42:03.759Z,72.80
2022-10-23T07:44:30.486Z,73.00
2022-10-23T07:46:57.125Z,72.60
2022-10-23T07:49:23.772Z,72.60
2022-10-23T07:51:51.783Z,72.50
2022-10-23T07:54:19.625Z,72.50
2022-10-23T07:57:04.950Z,72.60
2022-10-23T07:59:45.945Z,72.20
2022-10-23T08:02:15.307Z,72.20
2022-10-23T08:04:43.501Z,72.50
2022-10-23T08:07:26.945Z,72.30
2022-10-23T08:09:56.409Z,71.90
2022-10-23T08:12:23.187Z,71.90
2022-10-23T08:14:50.192Z,71.90
2022-10-23T08:17:17.127Z,72.10
2022-10-23T08:20:06.983Z,71.80
2022-10-23T08:22:39.980Z,71.90
2022-10-23T08:25:07.019Z,72.10
2022-10-23T08:27:33.678Z,71.70
2022-10-23T08:30:00.372Z,71.50
2022-10-23T08:32:31.344Z,71.30
2022-10-23T08:34:59.511Z,72.50
2022-10-23T08:37:28.935Z,71.30
2022-10-23T08:39:56.283Z,71.40
2022-10-23T08:42:52.115Z,71.30
2022-10-23T08:45:39.840Z,72.20
2022-10-23T08:48:32.482Z,71.00
2022-10-23T08:51:31.722Z,71.00
2022-10-23T08:54:16.686Z,72.50
2022-10-23T08:56:49.691Z,71.70
2022-10-23T08:59:25.035Z,71.80
2022-10-23T09:02:15.510Z,71.70
2022-10-23T09:04:47.126Z,72.60
2022-10-23T09:07:19.272Z,71.60
2022-10-23T09:10:01.295Z,71.50
2022-10-23T09:12:30.548Z,72.00
2022-10-23T09:15:07.905Z,71.00
2022-10-23T09:17:43.291Z,71.10
2022-10-23T09:20:19.402Z,71.50
2022-10-23T09:22:48.186Z,71.70
2022-10-23T09:25:25.044Z,70.50
2022-10-23T09:27:56.703Z,70.80
2022-10-23T09:30:35.918Z,70.60
2022-10-23T09:33:14.190Z,70.60
2022-10-23T09:35:59.682Z,71.20
2022-10-23T09:38:38.707Z,70.80
2022-10-23T09:41:46.229Z,71.10
2022-10-23T09:44:23.311Z,71.20
2022-10-23T09:47:11.266Z,71.40
2022-10-23T09:49:41.139Z,71.30
2022-10-23T09:52:10.832Z,70.70
2022-10-23T09:54:44.292Z,71.20
2022-10-23T09:57:39.464Z,70.90
2022-10-23T10:00:15.654Z,71.50
2022-10-23T10:02:53.942Z,71.80
2022-10-23T10:05:42.466Z,70.90
2022-10-23T10:08:24.565Z,70.90
2022-10-23T10:11:05.009Z,71.30
2022-10-23T10:13:36.492Z,71.00
2022-10-23T10:16:31.285Z,71.20
2022-10-23T10:19:10.072Z,70.60
2022-10-23T10:22:00.704Z,70.60
2022-10-23T10:24:30.114Z,70.50
2022-10-23T10:27:30.350Z,69.40
2022-10-23T10:30:10.361Z,70.10
2022-10-23T10:32:45.367Z,69.10
2022-10-23T10:35:28.568Z,69.80
2022-10-23T10:38:13.873Z,69.40
2022-10-23T10:41:18.720Z,68.80
2022-10-23T10:44:11.382Z,69.70
2022-10-23T10:46:56.134Z,69.20
2022-10-23T10:49:35.609Z,69.70
2022-10-23T10:52:49.607Z,69.70
2022-10-23T10:55:33.361Z,69.20
2022-10-23T10:58:05.787Z,69.80
2022-10-23T11:00:33.934Z,69.00
2022-10-23T11:03:10.165Z,68.70
2022-10-23T11:05:48.732Z,69.00
2022-10-23T11:08:27.746Z,69.10
2022-10-23T11:11:01.561Z,69.00
2022-10-23T11:13:40.345Z,69.00
2022-10-23T11:16:12.634Z,68.70
2022-10-23T11:18:43.301Z,68.80
2022-10-23T11:21:25.547Z,68.50
2022-10-23T11:24:39.418Z,68.50
2022-10-23T11:27:48.402Z,68.60
2022-10-23T11:30:36.882Z,68.80
2022-10-23T11:33:24.609Z,68.50
2022-10-23T11:36:17.765Z,69.00
2022-10-23T11:38:49.115Z,68.60
2022-10-23T11:41:21.058Z,67.80
2022-10-23T11:43:55.873Z,67.80
2022-10-23T11:46:22.590Z,67.50
2022-10-23T11:48:50.899Z,67.00
2022-10-23T11:51:36.691Z,66.90
2022-10-23T11:54:15.279Z,67.00
2022-10-23T11:56:53.570Z,66.50
2022-10-23T11:59:30.507Z,66.40
2022-10-23T12:02:00.636Z,66.00
2022-10-23T12:04:38.594Z,65.60
2022-10-23T12:07:23.742Z,65.50
2022-10-23T12:09:56.265Z,65.40
2022-10-23T12:12:42.349Z,65.00
2022-10-23T12:15:11.890Z,65.10
2022-10-23T12:17:40.108Z,64.60
2022-10-23T12:20:13.167Z,64.70
2022-10-23T12:23:03.198Z,65.50
2022-10-23T12:26:03.905Z,64.60
2022-10-23T12:28:53.772Z,64.70
2022-10-23T12:31:25.891Z,64.90
2022-10-23T12:34:01.465Z,64.60
2022-10-23T12:37:03.847Z,64.70
2022-10-23T12:39:37.299Z,64.80
2022-10-23T12:42:04.694Z,64.90
2022-10-23T12:44:31.393Z,64.20
2022-10-23T12:47:01.429Z,64.20
2022-10-23T12:49:34.658Z,64.10
2022-10-23T12:52:05.412Z,64.20
2022-10-23T12:54:38.293Z,64.40
2022-10-23T12:57:26.968Z,63.90
2022-10-23T12:59:58.485Z,64.00
2022-10-23T13:02:30.513Z,64.00
2022-10-23T13:05:00.722Z,64.00
2022-10-23T13:07:30.221Z,64.00
2022-10-23T13:09:59.873Z,64.10
2022-10-23T13:12:32.386Z,64.20
2022-10-23T13:15:15.793Z,64.00
2022-10-23T13:18:00.173Z,64.40
2022-10-23T13:20:29.229Z,64.00
2022-10-23T13:23:08.498Z,64.10
2022-10-23T13:25:37.404Z,64.30
2022-10-23T13:28:10.353Z,63.80
2022-10-23T13:30:40.036Z,64.00
2022-10-23T13:33:21.845Z,64.10
2022-10-23T13:36:01.266Z,64.40
2022-10-23T13:38:36.448Z,64.40
2022-10-23T13:41:05.484Z,64.10
2022-10-23T13:43:33.928Z,63.90
2022-10-23T13:46:01.394Z,64.10
2022-10-23T13:48:28.263Z,63.60
2022-10-23T13:51:06.006Z,63.90
2022-10-23T13:53:33.066Z,63.40
2022-10-23T13:55:59.798Z,63.50
2022-10-23T13:58:26.495Z,63.00
2022-10-23T14:00:53.593Z,63.30
2022-10-23T14:03:24.200Z,63.00
2022-10-23T14:05:51.726Z,62.70
2022-10-23T14:08:18.825Z,62.90
2022-10-23T14:10:45.822Z,63.50
2022-10-23T14:13:12.491Z,62.60
2022-10-23T14:15:39.548Z,62.50
2022-10-23T14:18:08.438Z,62.60
2022-10-23T14:20:37.701Z,62.80
2022-10-23T14:23:04.333Z,62.90
2022-10-23T14:25:31.082Z,62.90
2022-10-23T14:27:57.743Z,62.90
2022-10-23T14:30:24.402Z,63.00
2022-10-23T14:32:52.426Z,62.90
2022-10-23T14:35:19.112Z,62.90
2022-10-23T14:37:46.389Z,62.40
2022-10-23T14:40:13.209Z,62.10
2022-10-23T14:42:39.876Z,61.90
2022-10-23T14:45:07.215Z,61.80
2022-10-23T14:47:33.950Z,62.00
2022-10-23T14:50:00.618Z,62.10
2022-10-23T14:52:27.367Z,62.30
2022-10-23T14:54:54.208Z,62.50
2022-10-23T14:57:22.245Z,62.70
2022-10-23T14:59:49.675Z,62.80
2022-10-23T15:02:17.099Z,63.00
2022-10-23T15:04:43.835Z,63.10
2022-10-23T15:07:10.555Z,63.60
2022-10-23T15:09:39.321Z,63.20
2022-10-23T15:12:07.205Z,63.30
2022-10-23T15:14:34.493Z,63.30
2022-10-23T15:17:01.206Z,63.20
2022-10-23T15:19:27.858Z,63.50
2022-10-23T15:21:54.525Z,63.60
2022-10-23T15:24:21.480Z,63.90
2022-10-23T15:26:49.783Z,64.10
2022-10-23T15:29:16.563Z,64.40
2022-10-23T15:31:55.219Z,64.50
2022-10-23T15:34:25.976Z,64.80
2022-10-23T15:36:53.943Z,64.90
2022-10-23T15:39:26.223Z,65.10
2022-10-23T15:41:55.704Z,65.20
2022-10-23T15:44:25.058Z,65.50
2022-10-23T15:46:51.988Z,66.00
2022-10-23T15:49:20.049Z,65.40
2022-10-23T15:51:47.071Z,65.70
2022-10-23T15:54:17.006Z,65.70
2022-10-23T15:56:44.250Z,65.90
2022-10-23T15:59:11.393Z,65.80
2022-10-23T16:01:38.730Z,65.90
2022-10-23T16:04:05.906Z,66.10
2022-10-23T16:06:32.621Z,66.00
2022-10-23T16:08:59.779Z,66.10
2022-10-23T16:11:33.452Z,66.30
2022-10-23T16:14:01.573Z,67.10
2022-10-23T16:16:29.232Z,66.50
2022-10-23T16:18:58.158Z,66.70
2022-10-23T16:21:28.153Z,66.70
2022-10-23T16:23:57.444Z,66.80
2022-10-23T16:26:24.706Z,66.90
2022-10-23T16:28:55.982Z,66.80
2022-10-23T16:31:23.463Z,67.30
2022-10-23T16:33:51.367Z,67.00
2022-10-23T16:36:19.089Z,67.40
2022-10-23T16:39:05.288Z,67.10
2022-10-23T16:41:52.228Z,67.10
2022-10-23T16:44:18.968Z,67.10
2022-10-23T16:47:06.019Z,67.50
2022-10-23T16:49:32.806Z,67.10
2022-10-23T16:51:59.526Z,67.30
2022-10-23T16:54:26.212Z,67.40
2022-10-23T16:56:52.892Z,67.40
2022-10-23T16:59:19.581Z,67.30
2022-10-23T17:01:46.439Z,67.50
2022-10-23T17:04:13.267Z,67.40
2022-10-23T17:06:39.942Z,67.50
2022-10-23T17:09:06.933Z,67.50
2022-10-23T17:11:37.437Z,67.60
2022-10-23T17:14:17.507Z,67.80
2022-10-23T17:16:52.019Z,67.80
2022-10-23T17:19:43.338Z,68.10
2022-10-23T17:22:10.586Z,67.80
2022-10-23T17:24:39.217Z,67.80
2022-10-23T17:27:06.361Z,67.90
2022-10-23T17:29:33.079Z,67.70
2022-10-23T17:31:59.766Z,67.80
2022-10-23T17:34:26.479Z,67.70
2022-10-23T17:36:55.257Z,67.80
2022-10-23T17:39:25.513Z,67.90
2022-10-23T17:41:52.599Z,67.90
2022-10-23T17:44:19.514Z,67.80
2022-10-23T17:46:46.222Z,67.80
2022-10-23T17:49:12.909Z,67.80
2022-10-23T17:51:40.236Z,67.80
2022-10-23T17:54:10.713Z,68.10
2022-10-23T17:56:38.349Z,68.20
2022-10-23T17:59:08.425Z,68.20
2022-10-23T18:01:35.534Z,68.30
2022-10-23T18:04:05.056Z,68.10
2022-10-23T18:06:35.419Z,68.30
2022-10-23T18:09:04.673Z,68.30
2022-10-23T18:11:37.439Z,68.40
2022-10-23T18:14:06.524Z,68.20
2022-10-23T18:16:34.611Z,68.20
2022-10-23T18:19:02.491Z,68.20
2022-10-23T18:21:29.204Z,68.10
2022-10-23T18:23:55.998Z,68.00
2022-10-23T18:26:25.609Z,67.90
2022-10-23T18:28:56.745Z,68.10
2022-10-23T18:31:27.182Z,68.30
2022-10-23T18:34:04.050Z,68.20
2022-10-23T18:36:33.664Z,68.80
2022-10-23T18:39:00.594Z,68.10
2022-10-23T18:41:27.981Z,67.80
2022-10-23T18:43:54.831Z,67.90
2022-10-23T18:46:22.081Z,67.80
2022-10-23T18:48:50.690Z,68.70
2022-10-23T18:51:20.912Z,68.10
2022-10-23T18:53:47.867Z,67.80
2022-10-23T18:56:22.791Z,67.50
2022-10-23T18:58:55.317Z,67.90
2022-10-23T19:01:23.221Z,67.90
2022-10-23T19:03:50.234Z,68.10
2022-10-23T19:06:18.266Z,67.70
2022-10-23T19:08:45.656Z,68.00
2022-10-23T19:11:14.013Z,67.70
2022-10-23T19:13:41.492Z,68.00
2022-10-23T19:16:10.379Z,68.00
2022-10-23T19:18:38.772Z,68.30
2022-10-23T19:21:06.310Z,68.60
2022-10-23T19:23:36.328Z,68.70
2022-10-23T19:26:11.924Z,69.10
2022-10-23T19:28:42.339Z,69.50
2022-10-23T19:31:10.429Z,69.50
2022-10-23T19:33:38.831Z,69.90
2022-10-23T19:36:11.140Z,70.10
2022-10-23T19:38:41.110Z,70.70
2022-10-23T19:41:08.061Z,70.70
2022-10-23T19:43:34.750Z,70.80
2022-10-23T19:46:05.057Z,71.50
2022-10-23T19:48:34.858Z,71.10
2022-10-23T19:51:01.594Z,71.10
2022-10-23T19:53:28.304Z,71.00
2022-10-23T19:56:03.845Z,71.10
2022-10-23T19:58:30.537Z,71.50
2022-10-23T20:00:57.217Z,71.00
2022-10-23T20:03:23.957Z,71.10
2022-10-23T20:05:50.638Z,71.20
2022-10-23T20:08:18.337Z,71.20
2022-10-23T20:10:46.453Z,71.40
2022-10-23T20:13:19.761Z,71.10
2022-10-23T20:15:47.045Z,71.50
2022-10-23T20:18:13.774Z,71.20
2022-10-23T20:20:41.796Z,71.30
2022-10-23T20:23:08.754Z,71.10
2022-10-23T20:25:35.608Z,70.70
2022-10-23T20:28:02.426Z,70.40
2022-10-23T20:30:29.072Z,70.00
2022-10-23T20:32:55.936Z,69.60
2022-10-23T20:35:22.618Z,69.60
2022-10-23T20:37:49.270Z,69.20
2022-10-23T20:40:16.048Z,69.10
2022-10-23T20:42:42.701Z,68.80
2022-10-23T20:45:10.052Z,68.60
2022-10-23T20:47:36.703Z,68.50
2022-10-23T20:50:03.531Z,69.20
2022-10-23T20:54:59.745Z,67.90
2022-10-23T20:57:26.451Z,67.70
2022-10-23T20:59:53.574Z,68.00
2022-10-23T21:02:20.376Z,67.60
2022-10-23T21:04:47.685Z,67.30
2022-10-23T21:07:14.418Z,67.20
2022-10-23T21:09:41.105Z,67.00
2022-10-23T21:12:08.711Z,67.00
2022-10-23T21:14:36.299Z,66.90
2022-10-23T21:17:03.230Z,67.10
2022-10-23T21:19:29.966Z,66.70
2022-10-23T21:21:56.631Z,66.80
2022-10-23T21:24:24.523Z,66.60
2022-10-23T21:26:51.631Z,66.50
2022-10-23T21:29:19.881Z,66.30
2022-10-23T21:31:58.412Z,66.40
2022-10-23T21:34:26.049Z,67.30
2022-10-23T21:39:39.711Z,66.80
2022-10-23T21:42:06.387Z,66.70
2022-10-23T21:44:33.140Z,66.80
2022-10-23T21:46:59.848Z,66.70
2022-10-23T21:49:26.605Z,66.60
2022-10-23T21:51:54.839Z,66.70
2022-10-23T21:54:22.168Z,66.70
2022-10-23T21:56:50.858Z,67.10
2022-10-23T21:59:20.596Z,67.00
2022-10-23T22:01:48.797Z,67.10
2022-10-23T22:04:19.998Z,67.10
2022-10-23T22:06:48.517Z,67.20
2022-10-23T22:09:19.050Z,67.20
2022-10-23T22:11:45.825Z,67.40
2022-10-23T22:14:12.455Z,67.20
2022-10-23T22:16:39.092Z,67.20
2022-10-23T22:19:05.732Z,67.40
2022-10-23T22:21:32.485Z,67.50
2022-10-23T22:24:00.763Z,67.50
2022-10-23T22:26:33.688Z,67.90
2022-10-23T22:29:03.584Z,68.30
2022-10-23T22:31:32.264Z,69.00
2022-10-23T22:34:02.493Z,68.30
2022-10-23T22:36:31.795Z,68.40
2022-10-23T22:38:58.462Z,68.50
2022-10-23T22:41:25.146Z,68.70
2022-10-23T22:43:58.514Z,68.80
2022-10-23T22:46:27.467Z,69.70
2022-10-23T22:48:58.561Z,69.60
2022-10-23T22:51:27.284Z,70.00
2022-10-23T22:53:54.102Z,69.80
2022-10-23T22:56:23.958Z,69.60
2022-10-23T22:58:50.835Z,70.20
2022-10-23T23:01:31.269Z,69.90
2022-10-23T23:04:08.659Z,70.20
2022-10-23T23:06:45.630Z,70.00
2022-10-23T23:09:17.034Z,69.90
2022-10-23T23:11:51.915Z,69.80
2022-10-23T23:14:23.003Z,69.60
2022-10-23T23:16:52.499Z,69.50
2022-10-23T23:19:19.193Z,69.60
2022-10-23T23:21:45.888Z,69.50
2022-10-23T23:24:12.565Z,69.50
2022-10-23T23:26:39.768Z,69.50
2022-10-23T23:29:06.473Z,69.50
2022-10-23T23:31:33.168Z,69.70
2022-10-23T23:33:59.870Z,69.50
2022-10-23T23:36:27.653Z,69.50
2022-10-23T23:38:56.212Z,69.90
2022-10-23T23:41:23.974Z,70.10
2022-10-23T23:43:52.662Z,69.90
2022-10-23T23:46:19.423Z,69.80
2022-10-23T23:48:48.743Z,70.00
2022-10-23T23:51:21.202Z,70.00
2022-10-23T23:53:48.533Z,70.80
2022-10-23T23:56:15.654Z,70.00
2022-10-23T23:58:42.329Z,69.90
